createdAt,value
2018-10-06T06:23:16.250Z,10.02
2018-10-06T07:54:26.868Z,17.95
2018-10-06T07:54:59.917Z,17.73
2018-10-06T07:55:33.742Z,17.17
2018-10-06T07:56:06.801Z,18.08
2018-10-06T07:56:39.875Z,17.90
2018-10-06T07:57:12.887Z,18.08
2018-10-06T07:57:45.948Z,17.52
2018-10-06T07:58:19.062Z,16.50
2018-10-06T07:58:52.812Z,15.50
2018-10-06T07:59:26.683Z,18.25
2018-10-06T07:59:59.697Z,16.23
2018-10-06T08:00:32.755Z,16.27
2018-10-06T08:01:05.980Z,17.25
2018-10-06T08:01:39.040Z,17.23
2018-10-06T08:02:12.097Z,17.12
2018-10-06T08:02:45.156Z,17.33
2018-10-06T08:03:18.188Z,17.20
2018-10-06T08:03:51.239Z,17.25
2018-10-06T08:04:24.407Z,16.95
2018-10-06T08:04:57.448Z,17.87
2018-10-06T08:05:30.555Z,18.40
2018-10-06T08:08:14.463Z,17.15
2018-10-06T08:08:47.562Z,16.12
2018-10-06T08:09:20.594Z,18.02
2018-10-06T08:09:54.423Z,17.62
2018-10-06T08:10:27.448Z,16.45
2018-10-06T08:11:01.265Z,16.45
2018-10-06T08:11:35.106Z,16.67
2018-10-06T08:12:08.160Z,16.80
2018-10-06T08:12:41.208Z,16.85
2018-10-06T08:13:15.016Z,16.90
2018-10-06T08:13:48.105Z,22.10
2018-10-06T08:14:21.213Z,20.88
2018-10-06T08:14:54.255Z,17.92
2018-10-06T08:15:27.564Z,18.87
2018-10-06T08:16:00.617Z,18.37
2018-10-06T08:16:33.680Z,17.42
2018-10-06T08:17:06.734Z,17.98
2018-10-06T08:17:39.773Z,17.00
2018-10-06T08:18:12.820Z,16.50
2018-10-06T08:18:45.871Z,16.90
2018-10-06T08:19:18.911Z,16.48
2018-10-06T08:19:51.943Z,16.08
2018-10-06T08:20:25.000Z,16.50
2018-10-06T08:20:58.055Z,16.58
2018-10-06T08:21:32.103Z,15.98
2018-10-06T08:22:05.154Z,16.45
2018-10-06T08:22:38.191Z,16.45
2018-10-06T08:23:11.999Z,17.83
2018-10-06T08:23:45.834Z,15.68
2018-10-06T08:24:18.868Z,14.73
2018-10-06T08:24:52.676Z,16.17
2018-10-06T08:25:25.739Z,15.57
2018-10-06T08:25:58.828Z,16.12
2018-10-06T08:26:32.000Z,17.23
2018-10-06T08:27:05.046Z,16.45
2018-10-06T08:27:38.093Z,15.70
2018-10-06T08:28:11.146Z,16.40
2018-10-06T08:28:44.211Z,15.45
2018-10-06T08:29:17.255Z,16.10
2018-10-06T08:29:51.284Z,16.05
2018-10-06T08:30:24.336Z,16.12
2018-10-06T08:30:57.709Z,15.88
2018-10-06T08:31:31.558Z,15.35
2018-10-06T08:32:04.623Z,16.37
2018-10-06T08:32:37.655Z,15.68
2018-10-06T08:33:11.487Z,15.85
2018-10-06T08:33:44.499Z,16.12
2018-10-06T08:34:17.546Z,14.73
2018-10-06T08:34:50.587Z,14.90
2018-10-06T08:35:23.644Z,15.60
2018-10-06T08:35:56.700Z,15.90
2018-10-06T08:36:30.544Z,14.90
2018-10-06T08:37:03.628Z,15.65
2018-10-06T08:37:36.684Z,15.57
2018-10-06T08:38:10.468Z,14.75
2018-10-06T08:38:43.720Z,15.73
2018-10-06T08:39:16.779Z,16.50
2018-10-06T08:46:54.418Z,15.45
2018-10-06T08:49:05.011Z,16.58
2018-10-06T08:49:38.108Z,16.27
2018-10-06T08:50:11.102Z,15.50
2018-10-06T08:50:44.157Z,16.50
2018-10-06T08:51:17.195Z,15.90
2018-10-06T08:51:50.239Z,15.38
2018-10-06T08:52:23.281Z,16.35
2018-10-06T08:52:56.320Z,15.18
2018-10-06T08:53:30.123Z,15.85
2018-10-06T08:54:03.207Z,15.07
2018-10-06T08:54:36.991Z,14.25
2018-10-06T08:55:10.795Z,15.20
2018-10-06T08:55:43.860Z,15.60
2018-10-06T08:56:17.738Z,16.05
2018-10-06T08:56:50.708Z,15.20
2018-10-06T08:57:23.767Z,15.18
2018-10-06T08:57:56.814Z,16.45
2018-10-06T08:58:29.856Z,15.57
2018-10-06T08:59:03.113Z,15.48
2018-10-06T08:59:36.948Z,15.20
2018-10-06T09:00:09.999Z,16.40
2018-10-06T09:00:43.036Z,14.57
2018-10-06T09:01:16.094Z,15.25
2018-10-06T09:01:49.127Z,16.12
2018-10-06T09:02:54.669Z,15.95
2018-10-06T09:04:00.992Z,15.65
2018-10-06T09:06:11.603Z,14.90
2018-10-06T09:06:44.645Z,14.32
2018-10-06T09:07:17.898Z,16.05
2018-10-06T09:07:50.945Z,15.55
2018-10-06T09:08:24.351Z,16.00
2018-10-06T09:08:57.395Z,15.07
2018-10-06T09:09:30.439Z,15.23
2018-10-06T09:15:31.307Z,13.50
2018-10-06T09:16:37.048Z,14.30
2018-10-06T09:17:10.147Z,15.23
2018-10-06T09:17:43.232Z,13.98
2018-10-06T09:18:16.254Z,14.60
2018-10-06T09:27:36.778Z,14.10
2018-10-06T09:28:10.119Z,14.95
2018-10-06T09:28:44.092Z,14.60
2018-10-06T09:29:17.349Z,15.32
2018-10-06T09:29:50.400Z,15.30
2018-10-06T09:30:23.450Z,15.40
2018-10-06T09:30:56.536Z,14.10
2018-10-06T09:31:29.583Z,15.25
2018-10-06T09:32:02.622Z,14.77
2018-10-06T09:32:35.652Z,14.68
2018-10-06T09:34:18.651Z,13.43
2018-10-06T09:34:52.740Z,14.25
2018-10-06T09:35:26.794Z,13.73
2018-10-06T09:35:59.968Z,14.43
2018-10-06T09:36:33.848Z,13.68
2018-10-06T09:37:07.194Z,14.95
2018-10-06T09:37:41.505Z,14.73
2018-10-06T09:38:15.307Z,15.07
2018-10-06T09:38:49.136Z,15.27
2018-10-06T09:39:22.175Z,14.55
2018-10-06T09:39:55.220Z,16.37
2018-10-06T09:40:28.285Z,15.77
2018-10-06T09:41:02.096Z,15.68
2018-10-06T09:41:35.158Z,15.40
2018-10-06T09:42:08.257Z,15.30
2018-10-06T09:42:41.669Z,15.23
2018-10-06T09:43:15.044Z,14.43
2018-10-06T09:43:48.935Z,14.45
2018-10-06T09:44:22.015Z,14.07
2018-10-06T09:44:55.056Z,14.98
2018-10-06T09:45:28.128Z,15.45
2018-10-06T09:46:01.184Z,15.35
2018-10-06T09:46:34.223Z,15.40
2018-10-06T09:47:07.798Z,15.05
2018-10-06T09:47:41.447Z,14.95
2018-10-06T09:48:14.957Z,15.00
2018-10-06T09:48:48.032Z,14.18
2018-10-06T09:49:21.049Z,13.85
2018-10-06T09:49:54.096Z,14.82
2018-10-06T09:50:27.182Z,14.95
2018-10-06T09:51:00.239Z,14.40
2018-10-06T09:51:33.292Z,15.40
2018-10-06T09:52:06.334Z,14.27
2018-10-06T09:52:39.392Z,15.23
2018-10-06T09:53:12.453Z,14.45
2018-10-06T09:53:45.522Z,14.73
2018-10-06T09:54:18.549Z,14.60
2018-10-06T09:54:53.416Z,14.85
2018-10-06T09:55:26.474Z,15.27
2018-10-06T09:55:59.514Z,14.70
2018-10-06T09:56:32.543Z,14.80
2018-10-06T09:57:05.595Z,15.18
2018-10-06T09:57:38.660Z,15.55
2018-10-06T09:58:11.728Z,14.85
2018-10-06T09:58:44.769Z,13.98
2018-10-06T09:59:17.851Z,13.05
2018-10-06T09:59:50.887Z,13.68
2018-10-06T10:00:23.920Z,13.05
2018-10-06T10:00:56.965Z,13.43
2018-10-06T10:01:35.753Z,13.65
2018-10-06T10:02:09.028Z,13.30
2018-10-06T10:02:42.494Z,14.00
2018-10-06T10:03:18.248Z,13.27
2018-10-06T10:03:51.313Z,14.68
2018-10-06T10:04:24.377Z,12.93
2018-10-06T10:04:58.207Z,13.07
2018-10-06T10:05:31.316Z,12.85
2018-10-06T10:06:04.298Z,13.23
2018-10-06T10:06:38.137Z,12.93
2018-10-06T10:07:11.205Z,13.85
2018-10-06T10:07:44.263Z,12.82
2018-10-06T10:08:17.325Z,12.43
2018-10-06T10:08:50.364Z,13.57
2018-10-06T10:09:23.414Z,13.57
2018-10-06T10:09:56.767Z,12.25
2018-10-06T10:10:29.733Z,12.85
2018-10-06T10:11:02.787Z,13.43
2018-10-06T10:11:36.644Z,13.38
2018-10-06T10:12:10.452Z,12.80
2018-10-06T10:12:44.033Z,13.07
2018-10-06T10:13:17.428Z,12.57
2018-10-06T10:13:50.523Z,12.82
2018-10-06T10:14:24.326Z,13.13
2018-10-06T10:14:57.356Z,13.18
2018-10-06T10:15:30.453Z,13.20
2018-10-06T10:16:03.448Z,13.38
2018-10-06T10:16:36.488Z,12.23
2018-10-06T10:17:09.627Z,12.15
2018-10-06T10:17:42.671Z,11.98
2018-10-06T10:18:15.751Z,11.15
2018-10-06T10:18:49.439Z,26.87
2018-10-06T10:19:23.787Z,27.02
2018-10-06T10:19:56.836Z,13.20
2018-10-06T10:20:30.063Z,14.60
2018-10-06T10:21:03.120Z,14.25
2018-10-06T10:21:36.211Z,13.30
2018-10-06T10:22:09.369Z,12.23
2018-10-06T10:22:43.126Z,11.65
2018-10-06T10:23:16.068Z,12.57
2018-10-06T10:23:49.189Z,12.85
2018-10-06T10:24:22.132Z,12.85
2018-10-06T10:24:55.170Z,12.20
2018-10-06T10:25:29.584Z,12.90
2018-10-06T10:45:51.235Z,10.77
2018-10-06T10:46:24.829Z,12.50
2018-10-06T10:46:59.994Z,11.80
2018-10-06T12:52:55.720Z,7.93
2018-10-06T12:53:28.757Z,7.75
2018-10-06T12:54:01.791Z,7.75
2018-10-06T12:54:34.827Z,6.93
2018-10-06T12:55:08.614Z,8.07
2018-10-06T12:55:41.807Z,7.93
2018-10-06T12:56:14.874Z,8.02
2018-10-06T12:56:48.680Z,7.90
2018-10-06T12:57:22.497Z,8.43
2018-10-06T12:57:55.544Z,8.25
2018-10-06T12:58:28.581Z,8.60
2018-10-06T12:59:01.620Z,7.62
2018-10-06T12:59:34.663Z,7.68
2018-10-06T13:00:08.540Z,7.80
2018-10-06T13:00:41.512Z,7.47
2018-10-06T13:01:14.553Z,6.95
2018-10-06T13:01:47.594Z,7.40
2018-10-06T13:02:20.659Z,7.93
2018-10-06T13:02:54.460Z,7.72
2018-10-06T13:03:27.510Z,7.87
2018-10-06T13:04:00.560Z,6.80
2018-10-06T13:04:33.586Z,6.87
2018-10-06T13:05:06.617Z,6.68
2018-10-06T13:05:39.666Z,6.93
2018-10-06T13:06:12.775Z,7.00
2018-10-06T13:06:45.742Z,7.70
2018-10-06T13:07:18.780Z,7.28
2018-10-06T13:07:51.836Z,6.82
2018-10-06T13:08:24.873Z,6.40
2018-10-06T13:08:57.898Z,6.70
2018-10-06T13:09:30.948Z,6.40
2018-10-06T13:10:04.004Z,6.20
2018-10-06T13:10:37.032Z,7.80
2018-10-06T13:11:10.091Z,7.37
2018-10-06T13:11:43.156Z,8.32
2018-10-06T13:12:16.193Z,7.18
2018-10-06T13:12:49.222Z,6.95
2018-10-06T13:13:22.264Z,7.60
2018-10-06T13:13:55.309Z,7.00
2018-10-06T13:14:28.345Z,7.62
2018-10-06T13:15:01.389Z,7.93
2018-10-06T13:15:34.424Z,7.55
2018-10-06T13:16:07.779Z,8.13
2018-10-06T13:16:40.841Z,7.85
2018-10-06T13:17:13.856Z,7.55
2018-10-06T13:17:46.906Z,6.47
2018-10-06T13:18:19.920Z,7.20
2018-10-06T13:18:52.964Z,7.28
2018-10-06T13:19:26.010Z,7.10
2018-10-06T13:19:59.041Z,7.12
2018-10-06T13:20:32.071Z,6.78
2018-10-06T13:21:05.104Z,7.65
2018-10-06T13:21:38.185Z,7.60
2018-10-06T13:22:11.997Z,7.87
2018-10-06T13:22:45.028Z,8.00
2018-10-06T13:23:18.068Z,8.32
2018-10-06T13:23:51.112Z,7.80
2018-10-06T13:24:24.154Z,7.82
2018-10-06T13:24:57.208Z,6.55
2018-10-06T13:25:33.924Z,8.20
2018-10-06T13:26:20.925Z,8.68
2018-10-06T13:26:54.643Z,7.75
2018-10-06T13:27:27.664Z,7.53
2018-10-06T13:28:00.743Z,7.22
2018-10-06T13:28:34.544Z,7.37
2018-10-06T13:29:07.607Z,7.87
2018-10-06T13:29:40.635Z,6.90
2018-10-06T13:30:13.684Z,7.40
2018-10-06T13:30:46.726Z,7.28
2018-10-06T13:31:20.688Z,7.47
2018-10-06T13:31:54.894Z,7.10
2018-10-06T13:32:27.867Z,6.85
2018-10-06T13:33:01.825Z,6.65
2018-10-06T13:33:35.721Z,7.65
2018-10-06T13:34:18.775Z,7.72
2018-10-06T13:34:52.289Z,7.32
2018-10-06T13:35:25.303Z,6.90
2018-10-06T13:35:58.348Z,7.95
2018-10-06T13:36:32.177Z,7.55
2018-10-06T13:37:05.214Z,6.95
2018-10-06T13:37:38.336Z,6.90
2018-10-06T13:38:12.151Z,7.03
2018-10-06T13:38:45.211Z,6.90
2018-10-06T13:39:18.469Z,7.72
2018-10-06T13:39:51.545Z,7.15
2018-10-06T16:47:02.325Z,6.30
2018-10-06T16:56:17.607Z,5.65
2018-10-06T17:02:18.028Z,5.50
2018-10-06T17:02:51.036Z,5.90
2018-10-06T17:03:24.194Z,6.10
2018-10-06T17:06:53.216Z,5.70
2018-10-06T17:20:31.052Z,6.45
2018-10-06T17:24:53.281Z,8.05
2018-10-06T17:25:26.284Z,7.93
2018-10-06T17:27:38.403Z,7.90
2018-10-06T17:28:11.455Z,8.20
2018-10-06T17:28:44.484Z,7.65
2018-10-06T17:29:18.303Z,8.93
2018-10-06T17:29:51.337Z,8.52
2018-10-06T17:30:24.364Z,9.85
2018-10-06T17:30:57.408Z,8.90
2018-10-06T17:32:02.983Z,9.55
2018-10-06T17:32:36.021Z,10.35
2018-10-06T17:33:09.049Z,8.98
2018-10-06T17:33:42.111Z,9.55
2018-10-06T17:34:15.159Z,9.65
2018-10-06T17:34:48.203Z,9.63
2018-10-06T17:44:35.536Z,7.65
2018-10-06T17:45:08.561Z,7.90
2018-10-06T17:45:41.597Z,7.82
2018-10-06T17:46:14.636Z,7.32
2018-10-06T17:46:47.684Z,8.15
2018-10-06T17:47:20.715Z,7.20
2018-10-06T17:47:53.984Z,7.87
2018-10-06T17:48:27.025Z,7.62
2018-10-06T17:49:00.055Z,7.25
2018-10-06T17:49:33.097Z,6.80
2018-10-06T17:50:06.301Z,6.95
2018-10-06T17:50:40.121Z,6.80
2018-10-06T17:51:12.979Z,6.70
2018-10-06T17:58:18.599Z,6.20
2018-10-06T17:58:51.593Z,5.93
2018-10-06T17:59:24.608Z,6.10
2018-10-06T17:59:57.632Z,6.32
2018-10-06T18:00:30.657Z,5.78
2018-10-06T18:01:03.696Z,5.72
2018-10-06T18:02:10.039Z,5.75
2018-10-06T18:02:43.644Z,6.22
2018-10-06T18:03:16.680Z,5.95
2018-10-06T18:03:49.709Z,6.18
2018-10-06T18:04:22.757Z,6.18
2018-10-06T18:04:55.799Z,5.70
2018-10-06T18:05:29.610Z,5.53
2018-10-06T18:06:02.657Z,6.05
2018-10-06T18:06:36.474Z,5.32
2018-10-06T18:07:10.261Z,5.90
2018-10-06T18:07:43.300Z,5.65
2018-10-06T18:10:58.915Z,5.65
2018-10-06T18:11:31.979Z,5.57
2018-10-06T18:12:05.223Z,5.82
2018-10-06T18:12:38.252Z,6.05
2018-10-06T18:13:11.285Z,6.07
2018-10-06T18:13:44.312Z,5.85
2018-10-06T18:14:17.355Z,5.82
2018-10-06T18:14:50.400Z,5.60
2018-10-06T18:15:23.420Z,6.00
2018-10-06T18:15:56.452Z,5.50
2018-10-06T18:16:29.501Z,5.60
2018-10-06T18:17:02.537Z,5.70
2018-10-06T18:17:36.332Z,5.60
2018-10-06T18:18:09.364Z,5.70
2018-10-06T18:19:15.032Z,5.10
2018-10-06T18:19:48.861Z,5.40
2018-10-06T18:20:22.023Z,5.65
2018-10-06T18:20:54.955Z,5.35
2018-10-06T18:21:28.093Z,5.90
2018-10-06T18:22:01.003Z,5.25
2018-10-06T18:22:34.858Z,5.75
2018-10-06T18:23:07.892Z,5.32
2018-10-06T18:23:40.925Z,6.10
2018-10-06T18:24:13.992Z,5.95
2018-10-06T18:24:47.040Z,5.78
2018-10-06T18:25:20.068Z,5.65
2018-10-06T18:25:53.138Z,5.35
2018-10-06T18:26:26.148Z,5.32
2018-10-06T18:26:59.980Z,5.65
2018-10-06T18:27:32.961Z,5.47
2018-10-06T19:38:19.560Z,6.90
2018-10-06T19:38:53.382Z,7.53
2018-10-06T19:39:26.406Z,6.97
2018-10-06T19:39:59.440Z,6.53
2018-10-06T19:40:32.508Z,7.30
2018-10-06T19:41:05.568Z,6.80
2018-10-06T19:41:38.611Z,7.90
2018-10-06T19:42:11.674Z,6.90
2018-10-06T19:42:44.722Z,7.10
2018-10-06T19:43:17.743Z,6.90
2018-10-06T19:43:51.544Z,7.50
2018-10-06T19:44:25.354Z,7.62
2018-10-06T19:44:58.413Z,7.22
2018-10-06T19:45:32.243Z,7.40
2018-10-06T19:46:05.288Z,6.35
2018-10-06T19:46:39.079Z,7.43
2018-10-06T19:47:12.130Z,7.60
2018-10-06T19:47:45.165Z,7.55
2018-10-06T19:48:18.208Z,7.35
2018-10-06T19:48:51.223Z,7.57
2018-10-06T19:49:24.274Z,7.87
2018-10-06T19:49:57.322Z,7.25
2018-10-06T19:50:31.122Z,7.40
2018-10-06T19:51:04.179Z,6.95
2018-10-06T19:51:38.019Z,7.30
2018-10-06T19:52:11.813Z,8.35
2018-10-06T19:52:44.840Z,8.20
2018-10-06T19:53:17.954Z,7.10
2018-10-06T19:53:50.993Z,7.55
2018-10-06T19:54:24.820Z,7.35
2018-10-06T19:54:57.868Z,7.75
2018-10-06T19:55:30.928Z,7.50
2018-10-06T19:56:04.754Z,7.03
2018-10-06T19:56:38.098Z,7.70
2018-10-06T19:57:11.123Z,7.50
2018-10-06T19:57:44.167Z,8.02
2018-10-06T20:21:42.797Z,8.90
2018-10-06T20:23:53.647Z,8.00
2018-10-06T20:24:27.477Z,8.60
2018-10-06T20:53:18.861Z,7.12
2018-10-06T20:53:51.863Z,7.00
2018-10-06T20:54:24.896Z,7.30
2018-10-06T20:54:58.700Z,7.53
2018-10-06T20:55:31.751Z,7.30
2018-10-06T20:56:04.776Z,6.97
2018-10-06T20:56:37.832Z,7.32
2018-10-06T20:57:10.868Z,6.70
2018-10-06T20:57:43.918Z,7.43
2018-10-06T20:58:17.725Z,7.65
2018-10-06T21:03:45.671Z,8.00
2018-10-06T21:09:13.745Z,6.90
2018-10-06T21:46:19.723Z,8.10
2018-10-06T22:11:25.172Z,6.22
2018-10-06T22:11:58.226Z,6.57
2018-10-06T22:12:31.253Z,6.68
2018-10-06T22:13:04.309Z,6.40
2018-10-06T22:13:37.332Z,6.30
2018-10-06T22:14:10.368Z,6.78
2018-10-06T22:14:43.401Z,6.00
2018-10-06T22:15:16.488Z,6.85
2018-10-06T22:15:50.220Z,6.97
2018-10-06T22:16:24.032Z,5.72
2018-10-06T22:16:57.079Z,6.30
2018-10-06T22:17:30.117Z,6.12
2018-10-06T22:18:03.153Z,6.07
2018-10-06T22:18:36.192Z,6.22
2018-10-06T22:19:09.331Z,6.70
2018-10-06T22:19:42.365Z,6.68
2018-10-06T22:20:15.437Z,6.20
2018-10-06T22:20:48.475Z,7.12
2018-10-06T22:21:21.516Z,6.75
2018-10-06T22:21:55.328Z,5.97
2018-10-06T22:22:28.385Z,6.12
2018-10-06T22:23:01.427Z,6.15
2018-10-06T22:23:34.454Z,6.28
2018-10-06T22:24:07.484Z,6.12
2018-10-06T22:24:40.531Z,6.53
2018-10-06T22:25:13.557Z,5.93
2018-10-06T22:25:46.571Z,6.22
2018-10-06T22:26:20.373Z,5.60
2018-10-06T22:26:53.408Z,5.62
2018-10-06T22:27:26.546Z,6.10
2018-10-06T22:28:00.336Z,5.90
2018-10-06T22:28:34.133Z,5.82
2018-10-06T22:29:07.919Z,5.65
2018-10-06T22:29:41.743Z,5.93
2018-10-06T22:30:14.772Z,5.60
2018-10-06T22:30:47.805Z,5.65
2018-10-06T22:31:20.845Z,5.43
2018-10-06T22:31:54.636Z,6.22
2018-10-06T22:32:28.424Z,6.43
2018-10-06T22:33:02.251Z,5.93
2018-10-06T22:33:35.293Z,5.90
2018-10-06T22:34:09.107Z,6.03
2018-10-06T22:34:42.115Z,5.53
2018-10-06T22:35:15.158Z,6.00
2018-10-06T22:35:48.177Z,5.47
2018-10-06T22:36:21.325Z,5.80
2018-10-06T22:36:54.364Z,5.97
2018-10-06T22:37:28.163Z,6.30
2018-10-06T22:38:01.981Z,5.60
2018-10-06T22:38:35.013Z,5.97
2018-10-06T22:39:08.044Z,5.70
2018-10-06T22:39:41.070Z,6.25
2018-10-06T22:40:14.090Z,5.93
2018-10-06T22:40:47.882Z,5.85
2018-10-06T22:41:20.911Z,5.82
2018-10-06T22:41:54.729Z,5.70
2018-10-06T22:42:27.780Z,6.37
2018-10-06T22:43:01.575Z,5.85
2018-10-06T22:43:34.662Z,5.45
2018-10-06T22:44:07.914Z,5.32
2018-10-06T22:44:40.937Z,6.00
2018-10-06T22:45:14.476Z,5.45
2018-10-06T22:45:48.292Z,5.45
2018-10-06T22:46:21.357Z,5.93
2018-10-06T22:46:54.432Z,5.60
2018-10-06T22:47:28.230Z,5.40
2018-10-06T22:48:01.281Z,5.70
2018-10-06T22:48:34.337Z,6.10
2018-10-06T22:49:07.368Z,5.57
2018-10-06T22:49:40.404Z,5.10
2018-10-06T22:50:13.429Z,5.18
2018-10-06T22:50:47.222Z,5.57
2018-10-06T22:51:20.251Z,4.55
2018-10-06T22:51:53.283Z,5.25
2018-10-06T22:52:26.350Z,5.60
2018-10-06T22:52:59.372Z,5.43
2018-10-06T22:53:33.192Z,5.68
2018-10-06T22:54:06.229Z,6.12
2018-10-06T22:54:39.277Z,5.47
2018-10-06T22:55:12.309Z,5.00
2018-10-06T22:55:45.355Z,5.40
2018-10-06T22:56:18.383Z,5.30
2018-10-06T22:56:51.451Z,5.22
2018-10-06T22:57:24.436Z,5.60
2018-10-06T22:57:57.465Z,5.62
2018-10-06T22:58:31.280Z,6.15
2018-10-06T22:59:05.073Z,6.87
2018-10-06T22:59:38.113Z,5.78
2018-10-06T23:00:11.163Z,6.12
2018-10-06T23:00:44.183Z,5.85
2018-10-06T23:01:17.225Z,5.68
2018-10-06T23:01:50.270Z,6.10
2018-10-06T23:02:23.306Z,6.28
2018-10-06T23:02:57.090Z,6.05
2018-10-06T23:03:30.908Z,5.87
2018-10-06T23:04:03.941Z,6.60
2018-10-06T23:04:36.967Z,5.95
2018-10-06T23:05:10.009Z,5.85
2018-10-06T23:05:43.797Z,6.18
2018-10-06T23:06:17.584Z,6.07
2018-10-06T23:06:50.625Z,6.40
2018-10-06T23:07:23.653Z,6.03
2018-10-06T23:07:56.756Z,6.28
2018-10-06T23:08:29.827Z,5.82
2018-10-06T23:09:02.852Z,5.60
2018-10-06T23:09:35.897Z,6.05
2018-10-06T23:10:08.919Z,5.87
2018-10-06T23:10:41.955Z,6.15
2018-10-06T23:11:14.983Z,6.32
2018-10-06T23:11:48.008Z,5.87
2018-10-06T23:12:21.095Z,5.57
2018-10-06T23:12:54.088Z,6.50
2018-10-06T23:13:27.922Z,6.10
2018-10-06T23:14:00.945Z,5.75
2018-10-06T23:14:34.001Z,5.70
2018-10-06T23:15:07.036Z,5.53
2018-10-06T23:15:40.062Z,6.05
2018-10-06T23:16:13.085Z,5.75
2018-10-06T23:16:46.119Z,5.75
2018-10-06T23:17:19.920Z,5.95
2018-10-06T23:17:53.711Z,5.45
2018-10-06T23:18:27.509Z,5.72
2018-10-06T23:19:01.314Z,5.78
2018-10-06T23:19:34.335Z,5.68
2018-10-06T23:20:07.398Z,5.22
2018-10-06T23:20:40.412Z,5.72
2018-10-06T23:21:13.436Z,6.28
2018-10-06T23:21:46.468Z,5.85
2018-10-06T23:22:19.520Z,5.75
2018-10-06T23:22:52.548Z,5.78
2018-10-06T23:23:25.584Z,6.12
2018-10-06T23:23:59.383Z,5.93
2018-10-06T23:24:32.581Z,4.87
2018-10-06T23:25:05.607Z,5.53
2018-10-06T23:25:38.644Z,5.30
2018-10-06T23:26:11.727Z,5.30
2018-10-06T23:26:44.696Z,5.10
2018-10-06T23:27:17.716Z,5.37
2018-10-06T23:27:50.759Z,5.15
2018-10-06T23:28:23.816Z,5.15
2018-10-06T23:28:56.856Z,5.78
2018-10-06T23:29:30.641Z,5.50
2018-10-06T23:30:03.692Z,5.37
2018-10-06T23:30:36.721Z,6.00
2018-10-06T23:31:09.743Z,4.80
2018-10-06T23:31:42.792Z,5.25
2018-10-06T23:32:15.823Z,5.55
2018-10-06T23:32:49.627Z,4.95
2018-10-06T23:33:22.660Z,5.47
2018-10-06T23:33:56.476Z,5.57
2018-10-06T23:34:29.500Z,5.30
2018-10-06T23:35:02.537Z,4.75
2018-10-06T23:35:36.324Z,4.80
2018-10-06T23:36:10.127Z,5.32
2018-10-06T23:36:43.165Z,5.18
2018-10-06T23:37:16.209Z,5.03
2018-10-06T23:37:49.248Z,4.68
2018-10-06T23:38:23.085Z,5.68
2018-10-06T23:38:56.256Z,6.03
2018-10-06T23:39:29.302Z,5.28
2018-10-06T23:40:03.100Z,5.22
2018-10-06T23:40:36.138Z,5.10
2018-10-06T23:41:09.173Z,5.18
2018-10-06T23:41:42.256Z,5.05
2018-10-06T23:42:15.287Z,4.90
2018-10-06T23:42:48.387Z,4.80
2018-10-06T23:43:21.434Z,5.50
2018-10-06T23:43:55.264Z,5.47
2018-10-06T23:44:28.292Z,5.50
2018-10-06T23:45:01.333Z,5.07
2018-10-06T23:45:34.370Z,5.30
2018-10-06T23:46:07.414Z,4.97
2018-10-06T23:46:41.208Z,4.97
2018-10-06T23:47:15.215Z,4.82
2018-10-06T23:47:48.237Z,5.05
2018-10-06T23:48:21.281Z,5.00
2018-10-06T23:48:54.327Z,4.97
2018-10-06T23:49:28.127Z,5.37
2018-10-06T23:50:01.941Z,4.65
2018-10-06T23:50:34.967Z,5.35
2018-10-06T23:51:08.005Z,5.25
2018-10-06T23:51:41.028Z,4.28
2018-10-06T23:52:14.060Z,5.60
2018-10-06T23:52:47.084Z,5.30
2018-10-06T23:53:20.122Z,5.50
2018-10-06T23:53:53.176Z,4.87
2018-10-06T23:54:26.204Z,4.53
2018-10-06T23:54:59.240Z,5.22
2018-10-06T23:55:32.263Z,4.80
2018-10-06T23:56:06.063Z,5.18
2018-10-06T23:56:39.864Z,5.22
2018-10-06T23:57:12.898Z,5.25
2018-10-06T23:57:45.927Z,5.25
2018-10-06T23:58:18.961Z,5.43
2018-10-06T23:58:52.003Z,4.80
2018-10-06T23:59:25.048Z,4.75
2018-10-06T23:59:58.079Z,5.10
